Time;durP1;ratioP1;P1;durP2;ratioP2;P2;SDS_P1;SDS_P2;PMS_P1;PMS_P2;Temp;Humidity;BMP_temperature;BMP_pressure;BME280_temperature;BME280_humidity;BME280_pressure;Samples;Min_cycle;Max_cycle;Signal;HPM_P1;HPM_P2
2022/05/22 00:01:53;;;;;;;100.20;59.40;;;27.00;99.90;;;;;;5032302;28;20014;-65
2022/05/22 00:04:19;;;;;;;74.78;46.60;;;27.00;99.90;;;;;;5032337;28;20021;-65
2022/05/22 00:06:46;;;;;;;68.20;44.63;;;27.10;99.90;;;;;;5032888;28;20108;-65
2022/05/22 00:09:13;;;;;;;70.55;47.47;;;27.10;99.90;;;;;;5035845;28;20136;-66
2022/05/22 00:11:39;;;;;;;58.63;43.15;;;27.10;99.90;;;;;;5036002;28;20057;-65
2022/05/22 00:14:06;;;;;;;62.55;44.58;;;27.10;99.90;;;;;;5035948;28;20092;-65
2022/05/22 00:16:42;;;;;;;62.72;41.95;;;27.20;99.90;;;;;;5036376;28;20034;-65
2022/05/22 00:19:12;;;;;;;61.70;41.67;;;27.30;99.90;;;;;;5035198;28;20054;-64
2022/05/22 00:21:40;;;;;;;60.88;41.60;;;27.30;99.90;;;;;;5035777;28;20038;-65
2022/05/22 00:24:09;;;;;;;55.88;38.83;;;27.40;99.90;;;;;;5034352;28;20052;-64
2022/05/22 00:26:36;;;;;;;53.53;40.38;;;27.50;99.90;;;;;;5036339;28;20026;-65
2022/05/22 00:29:03;;;;;;;51.38;39.10;;;27.60;99.90;;;;;;5036200;28;20017;-66
2022/05/22 00:31:30;;;;;;;52.65;41.10;;;27.70;99.90;;;;;;5034024;28;20032;-65
2022/05/22 00:33:56;;;;;;;60.55;46.00;;;27.80;99.90;;;;;;5035629;28;20044;-64
2022/05/22 00:36:23;;;;;;;57.90;44.50;;;27.80;99.90;;;;;;5036007;28;20025;-65
2022/05/22 00:38:50;;;;;;;65.72;44.65;;;27.90;99.90;;;;;;5035465;28;20112;-66
2022/05/22 00:41:18;;;;;;;70.90;49.83;;;28.00;99.90;;;;;;5033918;28;20500;-65
2022/05/22 00:43:50;;;;;;;66.05;45.85;;;28.00;99.90;;;;;;5035197;28;20032;-64
2022/05/22 00:46:17;;;;;;;;;;;28.10;99.90;;;;;;5036047;28;20037;-65
2022/05/22 00:48:47;;;;;;;82.15;53.00;;;28.10;99.90;;;;;;5035741;28;19905;-64
2022/05/22 00:51:18;;;;;;;77.72;52.78;;;28.10;99.90;;;;;;5035123;28;20112;-64
2022/05/22 00:54:00;;;;;;;77.30;49.80;;;28.20;99.90;;;;;;5035228;28;20053;-66
2022/05/22 00:56:34;;;;;;;;;;;28.30;99.90;;;;;;5036053;28;20030;-66
2022/05/22 00:59:05;;;;;;;65.28;48.95;;;28.40;99.90;;;;;;5035526;28;20382;-66
2022/05/22 01:01:32;;;;;;;73.43;51.17;;;28.50;99.90;;;;;;5034918;28;20402;-69
2022/05/22 01:03:59;;;;;;;67.18;47.40;;;28.60;99.90;;;;;;5034755;28;20144;-66
2022/05/22 01:06:27;;;;;;;66.82;46.80;;;28.70;99.90;;;;;;5035355;28;20517;-65
2022/05/22 01:08:53;;;;;;;61.05;42.17;;;28.70;99.90;;;;;;5035332;28;20032;-65
2022/05/22 01:11:27;;;;;;;66.03;46.03;;;28.70;99.90;;;;;;5034242;28;20134;-64
2022/05/22 01:13:58;;;;;;;56.78;39.15;;;28.80;99.90;;;;;;5034397;28;20359;-65
2022/05/22 01:16:25;;;;;;;51.97;37.60;;;28.90;99.90;;;;;;5035311;28;20030;-64
2022/05/22 01:18:54;;;;;;;46.97;34.42;;;28.90;99.90;;;;;;5033984;28;20125;-66
2022/05/22 01:21:27;;;;;;;45.25;34.63;;;29.00;99.90;;;;;;5034416;28;20030;-64
2022/05/22 01:23:54;;;;;;;48.20;37.17;;;29.00;99.90;;;;;;5033667;28;20072;-65
2022/05/22 01:26:22;;;;;;;54.65;37.60;;;29.10;99.90;;;;;;5032922;28;20048;-62
2022/05/22 01:28:50;;;;;;;60.72;39.00;;;29.10;99.90;;;;;;5035128;28;20108;-64
2022/05/22 01:31:18;;;;;;;52.22;35.47;;;29.20;99.90;;;;;;5038914;28;20383;-62
2022/05/22 01:33:45;;;;;;;61.15;38.10;;;29.30;99.90;;;;;;5042640;28;20032;-64
2022/05/22 01:36:12;;;;;;;57.15;38.70;;;29.40;99.90;;;;;;5037006;28;20109;-63
2022/05/22 01:38:39;;;;;;;50.67;36.05;;;29.50;99.90;;;;;;5034553;28;20044;-63
2022/05/22 01:41:06;;;;;;;42.45;33.65;;;29.50;99.90;;;;;;5034650;28;20030;-63
2022/05/22 01:43:33;;;;;;;46.17;34.03;;;29.50;99.90;;;;;;5034021;28;20030;-64
2022/05/22 01:46:01;;;;;;;55.70;37.53;;;29.60;99.90;;;;;;5033670;28;20148;-64
2022/05/22 01:48:27;;;;;;;51.75;36.55;;;29.60;99.90;;;;;;5034508;28;20026;-64
2022/05/22 01:50:54;;;;;;;51.08;38.75;;;29.60;99.90;;;;;;5042011;28;20075;-63
2022/05/22 01:53:22;;;;;;;55.35;36.80;;;29.70;99.90;;;;;;5043814;28;20025;-62
2022/05/22 01:55:50;;;;;;;52.03;39.92;;;29.80;99.90;;;;;;5042009;28;20029;-63
2022/05/22 01:58:17;;;;;;;43.40;35.60;;;29.90;99.90;;;;;;5042745;28;20029;-64
2022/05/22 02:00:44;;;;;;;45.22;33.95;;;29.90;99.90;;;;;;5044475;28;20074;-64
2022/05/22 02:03:11;;;;;;;55.22;41.60;;;29.80;99.90;;;;;;5041415;28;20025;-64
2022/05/22 02:05:38;;;;;;;54.97;40.35;;;29.70;99.90;;;;;;5039664;28;20449;-65
2022/05/22 02:10:51;;;;;;;47.33;38.70;;;29.70;99.90;;;;;;5041127;28;20076;-63
2022/05/22 02:13:20;;;;;;;51.45;39.72;;;29.60;99.90;;;;;;5039818;28;20026;-65
2022/05/22 02:15:48;;;;;;;54.63;40.03;;;29.60;99.90;;;;;;5036280;28;20109;-64
2022/05/22 02:18:15;;;;;;;51.90;38.47;;;29.50;99.90;;;;;;5042098;28;20052;-65
2022/05/22 02:20:42;;;;;;;51.55;38.95;;;29.60;99.90;;;;;;5044148;28;20151;-64
2022/05/22 02:23:09;;;;;;;49.67;39.50;;;29.50;99.90;;;;;;5040477;28;20091;-64
2022/05/22 02:25:38;;;;;;;52.50;41.75;;;29.60;99.90;;;;;;5037898;28;20026;-64
2022/05/22 02:28:07;;;;;;;49.70;37.95;;;29.70;99.90;;;;;;5037351;28;20025;-63
2022/05/22 02:30:37;;;;;;;45.80;38.33;;;29.80;99.90;;;;;;5040058;28;20028;-63
2022/05/22 02:33:05;;;;;;;43.83;36.35;;;29.90;99.90;;;;;;5041151;28;20036;-63
2022/05/22 02:35:32;;;;;;;47.78;36.58;;;30.00;99.90;;;;;;5042689;28;20021;-63
2022/05/22 02:37:59;;;;;;;46.58;37.38;;;30.10;99.90;;;;;;5038748;28;20028;-65
2022/05/22 02:40:29;;;;;;;49.00;37.53;;;30.10;99.90;;;;;;5043338;28;20087;-62
2022/05/22 02:42:56;;;;;;;42.88;36.13;;;30.20;99.90;;;;;;5042226;28;20095;-63
2022/05/22 02:45:27;;;;;;;51.00;36.22;;;30.30;99.90;;;;;;5035110;28;20179;-63
2022/05/22 02:47:54;;;;;;;44.33;37.17;;;30.30;99.90;;;;;;5037486;28;20071;-62
2022/05/22 02:50:24;;;;;;;50.63;39.55;;;30.50;99.90;;;;;;5045706;28;20096;-59
2022/05/22 02:52:52;;;;;;;52.13;39.53;;;30.60;99.90;;;;;;5043773;28;20029;-63
2022/05/22 02:55:19;;;;;;;47.40;37.00;;;30.60;99.90;;;;;;5040758;28;20021;-63
2022/05/22 02:57:47;;;;;;;45.70;37.80;;;30.70;99.90;;;;;;5042918;28;20052;-63
2022/05/22 03:00:26;;;;;;;49.88;37.80;;;30.80;99.90;;;;;;5040788;28;20021;-62
2022/05/22 03:02:53;;;;;;;51.30;39.55;;;30.90;99.90;;;;;;5050648;28;20393;-64
2022/05/22 03:05:21;;;;;;;48.80;38.60;;;30.90;99.90;;;;;;5038465;28;20411;-63
2022/05/22 03:07:48;;;;;;;45.95;37.70;;;30.80;99.90;;;;;;5043338;28;20021;-64
2022/05/22 03:10:17;;;;;;;46.22;37.60;;;30.80;99.90;;;;;;5040175;28;20053;-64
2022/05/22 03:12:44;;;;;;;42.67;36.97;;;30.90;99.90;;;;;;5032768;28;20049;-67
2022/05/22 03:15:13;;;;;;;45.72;39.08;;;30.80;99.90;;;;;;5036660;28;20453;-63
2022/05/22 03:17:40;;;;;;;47.58;38.30;;;30.90;99.90;;;;;;5035378;28;20045;-62
2022/05/22 03:20:08;;;;;;;52.83;40.15;;;31.00;99.90;;;;;;5035109;28;20021;-62
2022/05/22 03:22:34;;;;;;;61.38;41.60;;;30.90;99.90;;;;;;5034826;28;20397;-62
2022/05/22 03:25:01;;;;;;;52.67;43.35;;;31.00;99.90;;;;;;5038825;28;20048;-63
2022/05/22 03:27:28;;;;;;;48.10;40.58;;;31.10;99.90;;;;;;5034717;28;20112;-64
2022/05/22 03:29:55;;;;;;;47.80;39.58;;;31.20;99.90;;;;;;5035546;28;20028;-63
2022/05/22 03:32:22;;;;;;;50.17;36.85;;;31.40;99.90;;;;;;5033390;28;20022;-64
2022/05/22 03:34:48;;;;;;;45.97;37.08;;;31.40;99.90;;;;;;5034106;28;20049;-64
2022/05/22 03:37:15;;;;;;;42.45;36.95;;;31.50;99.90;;;;;;5034400;28;20021;-64
2022/05/22 03:39:42;;;;;;;46.45;39.33;;;31.50;99.90;;;;;;5033214;28;20071;-64
2022/05/22 03:42:10;;;;;;;42.13;35.38;;;31.50;99.90;;;;;;5036128;28;20398;-64
2022/05/22 03:44:37;;;;;;;47.88;36.80;;;31.60;99.90;;;;;;5039930;28;20033;-64
2022/05/22 03:47:05;;;;;;;41.53;35.08;;;31.60;99.90;;;;;;5037524;28;20544;-64
2022/05/22 03:49:32;;;;;;;46.90;36.08;;;31.60;99.90;;;;;;5038409;28;20049;-64
2022/05/22 03:51:58;;;;;;;41.08;33.63;;;31.70;99.90;;;;;;5039084;28;20010;-64
2022/05/22 03:54:25;;;;;;;45.33;35.60;;;31.80;99.90;;;;;;5043219;28;20044;-63
2022/05/22 03:56:53;;;;;;;44.42;36.47;;;31.90;99.90;;;;;;5042206;28;20029;-65
2022/05/22 03:59:19;;;;;;;36.05;32.13;;;31.90;99.90;;;;;;5045884;28;20116;-62
2022/05/22 04:01:46;;;;;;;37.97;31.67;;;32.00;99.90;;;;;;5047010;28;20025;-64
2022/05/22 04:04:13;;;;;;;39.20;32.13;;;32.00;99.90;;;;;;5045151;28;20363;-64
2022/05/22 04:06:40;;;;;;;36.50;31.10;;;32.00;99.90;;;;;;5041820;28;20063;-65
2022/05/22 04:09:08;;;;;;;36.65;32.60;;;32.00;99.90;;;;;;5045498;28;20023;-62
2022/05/22 04:11:38;;;;;;;41.47;33.63;;;32.10;99.90;;;;;;5045886;28;20033;-63
2022/05/22 04:14:05;;;;;;;43.03;33.55;;;32.10;99.90;;;;;;5041244;28;20033;-62
2022/05/22 04:16:32;;;;;;;34.10;29.75;;;32.20;99.90;;;;;;5034754;28;20112;-63
2022/05/22 04:18:59;;;;;;;41.28;31.60;;;32.30;99.90;;;;;;5045836;28;20493;-62
2022/05/22 04:21:26;;;;;;;31.77;26.73;;;32.30;99.90;;;;;;5045167;28;20028;-63
2022/05/22 04:26:39;;;;;;;29.45;26.15;;;32.30;99.90;;;;;;5042441;28;20032;-62
2022/05/22 04:29:06;;;;;;;27.13;24.25;;;32.30;99.90;;;;;;5045094;28;20501;-62
2022/05/22 04:31:33;;;;;;;31.05;25.25;;;32.40;99.30;;;;;;5039527;28;20083;-63
2022/05/22 04:33:59;;;;;;;28.80;25.02;;;32.50;98.80;;;;;;5043240;28;20073;-62
2022/05/22 04:36:26;;;;;;;31.02;25.33;;;32.70;97.90;;;;;;5041892;28;20029;-61
2022/05/22 04:38:53;;;;;;;30.02;23.98;;;32.70;97.90;;;;;;5036119;28;20045;-62
2022/05/22 04:41:21;;;;;;;25.70;22.83;;;32.80;97.50;;;;;;5035976;28;20017;-62
2022/05/22 04:43:48;;;;;;;30.25;23.60;;;32.90;97.10;;;;;;5035232;28;20065;-64
2022/05/22 04:46:15;;;;;;;26.60;21.67;;;32.80;97.90;;;;;;5034796;28;20032;-63
2022/05/22 04:48:41;;;;;;;26.40;23.35;;;32.90;97.60;;;;;;5035530;28;20037;-64
2022/05/22 04:51:09;;;;;;;25.52;22.25;;;32.90;97.80;;;;;;5028591;28;20056;-64
2022/05/22 04:53:36;;;;;;;28.63;22.98;;;33.00;96.70;;;;;;5042407;28;20025;-63
2022/05/22 04:56:03;;;;;;;26.83;21.52;;;33.00;97.10;;;;;;5045719;28;20017;-64
2022/05/22 04:58:30;;;;;;;28.40;22.00;;;33.00;96.10;;;;;;5043134;28;20027;-63
2022/05/22 05:00:58;;;;;;;29.02;21.63;;;33.10;96.60;;;;;;5041484;28;20037;-63
2022/05/22 05:03:25;;;;;;;27.25;22.25;;;33.30;95.90;;;;;;5039855;28;20037;-63
2022/05/22 05:05:55;;;;;;;27.63;22.98;;;33.30;95.40;;;;;;5046435;28;20055;-65
2022/05/22 05:08:23;;;;;;;27.40;22.63;;;33.10;95.20;;;;;;5037952;28;20022;-65
2022/05/22 05:10:51;;;;;;;26.80;21.38;;;33.10;95.20;;;;;;5038696;28;20032;-63
2022/05/22 05:13:19;;;;;;;24.27;21.42;;;33.00;95.70;;;;;;5040364;28;20520;-65
2022/05/22 05:15:46;;;;;;;24.02;19.67;;;33.10;95.00;;;;;;5043005;28;20669;-65
2022/05/22 05:18:14;;;;;;;28.52;21.48;;;33.10;95.40;;;;;;5043651;28;20060;-65
2022/05/22 05:20:42;;;;;;;28.08;20.90;;;33.00;95.70;;;;;;5039715;28;20029;-64
2022/05/22 05:23:09;;;;;;;23.90;21.30;;;33.10;95.70;;;;;;5037001;28;20448;-62
2022/05/22 05:25:36;;;;;;;25.45;20.95;;;33.10;96.00;;;;;;5036952;28;20029;-64
2022/05/22 05:28:02;;;;;;;25.20;22.30;;;33.10;95.70;;;;;;5039123;28;20013;-64
2022/05/22 05:30:29;;;;;;;27.27;23.27;;;33.10;95.50;;;;;;5040837;28;20028;-64
2022/05/22 05:32:56;;;;;;;30.58;24.50;;;33.10;96.00;;;;;;5039995;28;20071;-65
2022/05/22 05:35:23;;;;;;;25.40;22.00;;;33.10;96.20;;;;;;5042922;28;20040;-66
2022/05/22 05:37:50;;;;;;;25.20;21.50;;;33.10;95.60;;;;;;5045155;28;20033;-65
2022/05/22 05:40:18;;;;;;;32.53;23.40;;;33.00;94.60;;;;;;5045808;28;20491;-65
2022/05/22 05:42:45;;;;;;;28.05;24.08;;;33.00;95.60;;;;;;5040350;28;20026;-66
2022/05/22 05:45:13;;;;;;;30.23;23.40;;;33.10;94.80;;;;;;5037932;28;20048;-64
2022/05/22 05:47:40;;;;;;;30.25;22.30;;;33.00;95.20;;;;;;5033966;28;20036;-65
2022/05/22 05:50:08;;;;;;;32.60;25.40;;;33.10;95.10;;;;;;5034692;28;20092;-65
2022/05/22 05:52:35;;;;;;;31.77;25.75;;;33.20;95.30;;;;;;5033032;28;20040;-63
2022/05/22 05:55:02;;;;;;;30.35;25.27;;;33.30;94.50;;;;;;5034463;28;20033;-62
2022/05/22 05:57:29;;;;;;;38.60;31.98;;;33.40;94.20;;;;;;5033905;28;20508;-62
2022/05/22 05:59:56;;;;;;;34.42;28.42;;;33.40;94.40;;;;;;5038516;28;20029;-64
2022/05/22 06:02:23;;;;;;;31.20;26.48;;;33.40;93.80;;;;;;5034038;28;20033;-64
2022/05/22 06:04:50;;;;;;;32.25;28.83;;;33.40;93.80;;;;;;5039792;28;20363;-64
2022/05/22 06:07:17;;;;;;;41.38;30.92;;;33.50;94.00;;;;;;5043854;28;20025;-63
2022/05/22 06:09:44;;;;;;;41.10;35.38;;;33.60;93.90;;;;;;5042816;28;20033;-64
2022/05/22 06:12:11;;;;;;;39.25;31.08;;;33.60;93.50;;;;;;5036971;28;20380;-63
2022/05/22 06:14:44;;;;;;;49.28;31.75;;;33.70;93.00;;;;;;5038710;28;20108;-71
2022/05/22 06:17:10;;;;;;;47.03;36.47;;;33.70;93.50;;;;;;5041460;28;20557;-69
2022/05/22 06:22:28;;;;;;;40.05;31.48;;;33.80;94.20;;;;;;5038498;28;20021;-61
2022/05/22 06:24:57;;;;;;;34.67;30.75;;;33.80;94.10;;;;;;5040501;28;20474;-63
2022/05/22 06:27:24;;;;;;;35.97;29.08;;;33.80;93.70;;;;;;5041151;28;20036;-63
2022/05/22 06:29:50;;;;;;;32.72;28.42;;;33.60;93.20;;;;;;5034631;28;20055;-63
2022/05/22 06:32:19;;;;;;;32.88;28.85;;;33.40;93.80;;;;;;5038633;28;20108;-61
2022/05/22 06:34:47;;;;;;;38.60;28.58;;;33.30;94.10;;;;;;5021930;28;20475;-62
2022/05/22 06:37:17;;;;;;;35.72;27.40;;;33.30;94.10;;;;;;5044834;28;20379;-62
2022/05/22 06:39:54;;;;;;;31.05;24.70;;;33.50;93.80;;;;;;5034918;28;20282;-62
2022/05/22 06:42:23;;;;;;;31.77;26.67;;;33.50;93.80;;;;;;5039524;28;20351;-63
2022/05/22 06:45:05;;;;;;;25.92;22.88;;;33.60;93.70;;;;;;5044318;28;20033;-63
2022/05/22 06:47:33;;;;;;;30.55;24.33;;;33.70;93.40;;;;;;5017332;28;20030;-64
2022/05/22 06:50:03;;;;;;;26.80;21.80;;;33.90;92.90;;;;;;5041272;28;20078;-62
2022/05/22 06:52:33;;;;;;;26.65;21.73;;;34.00;92.40;;;;;;5028655;28;20722;-64
2022/05/22 06:55:00;;;;;;;26.38;19.98;;;34.00;91.90;;;;;;5047741;28;20029;-62
2022/05/22 06:57:28;;;;;;;23.25;18.63;;;34.00;91.90;;;;;;5042676;28;20083;-63
2022/05/22 06:59:57;;;;;;;22.55;19.45;;;34.10;91.40;;;;;;5039874;28;20079;-63
2022/05/22 07:02:27;;;;;;;25.35;19.00;;;34.10;91.50;;;;;;5040799;28;20056;-63
2022/05/22 07:04:57;;;;;;;23.92;18.67;;;34.20;90.80;;;;;;5040129;28;20496;-63
2022/05/22 07:07:23;;;;;;;21.75;17.48;;;34.20;90.80;;;;;;5040262;28;20041;-63
2022/05/22 07:09:50;;;;;;;24.77;18.38;;;34.20;89.50;;;;;;5044571;28;20100;-63
2022/05/22 07:12:18;;;;;;;27.45;21.88;;;34.20;90.30;;;;;;5041303;28;20030;-64
2022/05/22 07:14:48;;;;;;;20.27;17.52;;;34.20;90.60;;;;;;5044493;28;20116;-65
2022/05/22 07:17:21;;;;;;;21.63;18.73;;;34.30;90.10;;;;;;5049878;28;20036;-64
2022/05/22 07:19:48;;;;;;;23.23;18.88;;;34.20;89.90;;;;;;5031851;28;20030;-62
2022/05/22 07:22:15;;;;;;;21.80;19.52;;;34.20;89.20;;;;;;5033247;28;20037;-63
2022/05/22 07:24:41;;;;;;;24.83;19.33;;;34.10;89.80;;;;;;5033081;28;20029;-62
2022/05/22 07:27:08;;;;;;;23.38;19.95;;;34.00;90.20;;;;;;5031781;28;20104;-63
2022/05/22 07:29:35;;;;;;;22.15;18.70;;;33.90;90.20;;;;;;5031957;28;20021;-64
2022/05/22 07:32:03;;;;;;;25.35;17.52;;;33.80;90.50;;;;;;5031985;28;20017;-66
2022/05/22 07:34:30;;;;;;;24.42;17.67;;;33.70;90.30;;;;;;5033138;28;20048;-70
2022/05/22 07:37:00;;;;;;;30.02;19.02;;;33.60;90.90;;;;;;5032106;28;20060;-67
2022/05/22 07:39:27;;;;;;;23.83;17.27;;;33.60;91.20;;;;;;5032982;28;20079;-68
2022/05/22 07:41:55;;;;;;;23.52;16.85;;;33.60;91.00;;;;;;5033462;28;20076;-68
2022/05/22 07:44:22;;;;;;;22.20;17.65;;;33.50;91.70;;;;;;5032823;28;20037;-67
2022/05/22 07:46:50;;;;;;;24.70;16.20;;;33.50;91.00;;;;;;5032067;28;20528;-67
2022/05/22 07:52:08;;;;;;;22.58;15.43;;;33.40;91.20;;;;;;5031791;28;20019;-68
2022/05/22 07:54:37;;;;;;;17.83;14.80;;;33.40;90.70;;;;;;5031782;28;20470;-68
2022/05/22 07:57:04;;;;;;;18.70;14.30;;;33.40;90.90;;;;;;5032615;28;20108;-69
2022/05/22 07:59:35;;;;;;;18.58;15.45;;;33.40;90.90;;;;;;5033117;28;20030;-70
2022/05/22 08:02:03;;;;;;;19.88;15.98;;;33.30;91.10;;;;;;5032048;28;20022;-62
2022/05/22 08:04:30;;;;;;;23.20;14.50;;;33.40;91.00;;;;;;5041827;28;20025;-61
2022/05/22 08:06:57;;;;;;;21.20;15.30;;;33.40;90.70;;;;;;5033219;28;20430;-62
2022/05/22 08:09:24;;;;;;;18.75;13.88;;;33.40;90.60;;;;;;5034366;28;20026;-62
2022/05/22 08:11:50;;;;;;;19.83;14.07;;;33.40;90.50;;;;;;5038497;28;20048;-61
2022/05/22 08:14:17;;;;;;;22.92;17.45;;;33.40;90.70;;;;;;5031654;28;20033;-62
2022/05/22 08:16:44;;;;;;;28.20;19.92;;;33.40;91.70;;;;;;5033794;28;20033;-63
2022/05/22 08:19:12;;;;;;;32.10;17.33;;;33.50;91.00;;;;;;5033037;28;20115;-63
2022/05/22 08:21:38;;;;;;;23.83;16.48;;;33.50;90.90;;;;;;5032805;28;20076;-62
2022/05/22 08:24:05;;;;;;;21.15;17.17;;;33.50;91.30;;;;;;5032744;28;20025;-61
2022/05/22 08:26:32;;;;;;;18.98;14.70;;;33.60;91.10;;;;;;5031592;28;20025;-61
2022/05/22 08:28:59;;;;;;;20.98;15.48;;;33.70;90.30;;;;;;5033897;28;20021;-61
2022/05/22 08:31:25;;;;;;;22.60;15.82;;;33.70;89.90;;;;;;5035946;28;20099;-61
2022/05/22 08:33:52;;;;;;;22.20;15.43;;;33.70;90.20;;;;;;5035808;28;20076;-61
2022/05/22 08:36:19;;;;;;;23.45;15.10;;;33.70;89.40;;;;;;5035601;28;20069;-60
2022/05/22 08:38:45;;;;;;;16.63;13.75;;;33.80;90.00;;;;;;5044216;28;20542;-62
2022/05/22 08:41:13;;;;;;;22.75;14.02;;;33.90;88.00;;;;;;5055942;28;20520;-62
2022/05/22 08:43:54;;;;;;;20.92;15.48;;;34.00;89.20;;;;;;5056370;28;20389;-62
2022/05/22 08:46:29;;;;;;;20.83;14.30;;;34.00;88.60;;;;;;5034632;28;20022;-61
2022/05/22 08:48:59;;;;;;;24.08;14.88;;;34.00;89.20;;;;;;5035195;28;20050;-63
2022/05/22 08:51:47;;;;;;;20.13;14.38;;;33.90;90.20;;;;;;5041207;28;20032;-62
2022/05/22 08:54:23;;;;;;;30.90;15.93;;;33.90;89.20;;;;;;5051539;28;20032;-64
2022/05/22 08:59:39;;;;;;;22.27;15.82;;;33.90;90.30;;;;;;5038221;28;20099;-62
2022/05/22 09:02:17;;;;;;;41.22;30.33;;;33.80;89.70;;;;;;5043375;28;20036;-64
2022/05/22 09:04:49;;;;;;;38.55;31.17;;;33.80;88.20;;;;;;5036671;28;20056;-64
2022/05/22 09:07:18;;;;;;;38.08;21.35;;;33.80;88.30;;;;;;5044746;28;20025;-63
2022/05/22 09:09:52;;;;;;;102.03;82.55;;;33.70;89.20;;;;;;5035645;28;20026;-63
2022/05/22 09:12:48;;;;;;;100.25;71.32;;;33.70;88.60;;;;;;5032313;28;20118;-61
2022/05/22 09:15:23;;;;;;;92.75;62.20;;;33.70;88.70;;;;;;5012340;28;20132;-62
2022/05/22 09:18:07;;;;;;;53.78;35.35;;;33.60;89.10;;;;;;5013110;28;20497;-63
2022/05/22 09:21:13;;;;;;;468.83;324.88;;;33.60;89.90;;;;;;5013435;28;20044;-62
2022/05/22 09:23:49;;;;;;;280.95;186.90;;;33.60;90.10;;;;;;5012736;28;20104;-62
2022/05/22 09:26:25;;;;;;;279.38;178.43;;;33.50;90.10;;;;;;5011580;28;20249;-62
2022/05/22 09:28:58;;;;;;;340.00;219.00;;;33.50;90.40;;;;;;5013023;28;20057;-62
2022/05/22 09:31:37;;;;;;;197.20;113.15;;;33.50;89.90;;;;;;5012174;28;20033;-62
2022/05/22 09:34:07;;;;;;;199.93;89.60;;;33.40;89.10;;;;;;5012864;28;20125;-62
2022/05/22 09:36:42;;;;;;;169.82;95.97;;;33.30;90.30;;;;;;5012791;28;20569;-62
2022/05/22 09:39:28;;;;;;;179.65;126.93;;;33.40;90.00;;;;;;5012643;28;20029;-63
2022/05/22 09:42:03;;;;;;;154.82;96.88;;;33.30;90.10;;;;;;5011471;28;20312;-62
2022/05/22 09:44:41;;;;;;;150.60;92.90;;;33.20;89.50;;;;;;5004103;28;20025;-61
2022/05/22 09:47:29;;;;;;;67.53;36.97;;;33.20;90.30;;;;;;5041992;28;20041;-61
2022/05/22 09:50:06;;;;;;;70.55;45.85;;;33.20;90.50;;;;;;5043125;28;20039;-63
2022/05/22 09:52:54;;;;;;;110.50;74.53;;;33.20;90.20;;;;;;5038192;28;20455;-62
2022/05/22 09:55:44;;;;;;;72.35;55.38;;;33.10;90.30;;;;;;5034000;28;20033;-62
2022/05/22 09:58:21;;;;;;;58.63;44.03;;;33.00;89.90;;;;;;4973366;28;20038;-62
2022/05/22 10:01:04;;;;;;;64.55;47.30;;;33.00;90.20;;;;;;4971564;28;20067;-62
2022/05/22 10:03:41;;;;;;;61.83;47.05;;;33.00;90.60;;;;;;4973362;28;20031;-61
2022/05/22 10:06:18;;;;;;;52.30;39.90;;;33.00;90.80;;;;;;4972451;28;20534;-61
2022/05/22 10:09:08;;;;;;;56.97;42.70;;;32.90;91.10;;;;;;4971222;28;20038;-62
2022/05/22 10:11:51;;;;;;;73.72;51.92;;;32.90;91.70;;;;;;4972476;28;20089;-63
2022/05/22 10:14:30;;;;;;;70.35;50.03;;;32.80;92.50;;;;;;4972929;28;20171;-66
2022/05/22 10:16:57;;;;;;;74.53;55.53;;;32.70;92.60;;;;;;4971910;28;20431;-66
2022/05/22 10:19:32;;;;;;;70.68;50.92;;;32.60;92.70;;;;;;4972126;28;20047;-63
2022/05/22 10:22:23;;;;;;;59.42;44.55;;;32.60;93.00;;;;;;4972501;28;20050;-63
2022/05/22 10:25:29;;;;;;;75.55;54.55;;;32.50;92.70;;;;;;4972719;28;20042;-63
2022/05/22 10:28:00;;;;;;;95.07;64.38;;;32.40;92.80;;;;;;4893937;29;20548;-64
2022/05/22 10:30:34;;;;;;;115.78;71.78;;;32.40;93.10;;;;;;4912222;29;20047;-63
2022/05/22 10:33:05;;;;;;;85.93;60.72;;;32.30;93.10;;;;;;4913381;29;20501;-63
2022/05/22 10:35:39;;;;;;;65.68;50.38;;;32.20;93.30;;;;;;4905489;29;20041;-63
2022/05/22 10:38:25;;;;;;;73.13;58.33;;;32.20;93.50;;;;;;4910951;29;20078;-63
2022/05/22 10:43:48;;;;;;;73.43;52.70;;;32.10;93.50;;;;;;4914937;29;20061;-65
2022/05/22 10:46:15;;;;;;;80.50;60.67;;;32.00;94.00;;;;;;4910033;29;20481;-64
2022/05/22 10:48:55;;;;;;;79.80;61.42;;;32.00;93.80;;;;;;4911311;29;20028;-65
2022/05/22 10:51:31;;;;;;;80.13;58.00;;;32.00;94.20;;;;;;4904729;29;20257;-63
2022/05/22 10:54:00;;;;;;;143.38;114.22;;;32.00;94.00;;;;;;4913250;28;20400;-64
2022/05/22 10:56:30;;;;;;;135.05;84.82;;;31.90;94.10;;;;;;4956909;28;20051;-63
2022/05/22 10:59:00;;;;;;;89.20;65.88;;;31.80;94.20;;;;;;4958642;28;20053;-63
2022/05/22 11:01:31;;;;;;;86.75;62.63;;;31.80;94.70;;;;;;4962698;28;20042;-63
2022/05/22 11:04:10;;;;;;;95.13;67.97;;;31.60;95.20;;;;;;4964188;28;20146;-63
2022/05/22 11:06:50;;;;;;;78.50;62.10;;;31.70;95.30;;;;;;4960386;28;20265;-64
2022/05/22 11:09:24;;;;;;;74.57;58.45;;;31.60;95.30;;;;;;4959787;28;20174;-65
2022/05/22 11:11:51;;;;;;;81.85;61.80;;;31.60;95.40;;;;;;4965660;28;20387;-64
2022/05/22 11:14:21;;;;;;;79.70;60.22;;;31.60;95.50;;;;;;4965858;28;20031;-64
2022/05/22 11:16:48;;;;;;;98.55;63.97;;;31.50;96.00;;;;;;4959253;28;20089;-64
2022/05/22 11:19:21;;;;;;;73.95;59.03;;;31.50;95.70;;;;;;4959107;28;20547;-65
2022/05/22 11:22:16;;;;;;;77.05;61.40;;;31.50;95.80;;;;;;4960745;28;20039;-64
2022/05/22 11:25:05;;;;;;;89.78;63.75;;;31.50;95.70;;;;;;4956101;28;20054;-65
2022/05/22 11:27:51;;;;;;;93.57;67.15;;;31.40;95.90;;;;;;4956777;28;20474;-65
2022/05/22 11:30:41;;;;;;;88.78;64.90;;;31.40;96.10;;;;;;4997439;28;20030;-64
2022/05/22 11:33:34;;;;;;;79.28;60.70;;;31.40;96.30;;;;;;5036214;28;20025;-63
2022/05/22 11:36:41;;;;;;;92.13;67.45;;;31.40;96.20;;;;;;5037442;28;20030;-64
2022/05/22 11:39:29;;;;;;;82.97;60.35;;;31.40;95.80;;;;;;5056432;28;20032;-64
2022/05/22 11:42:08;;;;;;;72.78;55.53;;;31.30;96.30;;;;;;5049861;28;20048;-64
2022/05/22 11:44:58;;;;;;;77.85;57.88;;;31.30;96.10;;;;;;5048965;28;20091;-63
2022/05/22 11:47:37;;;;;;;72.15;56.97;;;31.20;95.90;;;;;;5042991;28;20037;-63
2022/05/22 11:50:06;;;;;;;81.38;61.92;;;31.20;96.20;;;;;;5040783;28;20022;-64
2022/05/22 11:55:40;;;;;;;78.07;62.35;;;31.10;96.50;;;;;;5032594;28;20026;-64
2022/05/22 11:58:18;;;;;;;75.85;57.45;;;31.10;96.50;;;;;;5033388;28;20033;-63
2022/05/22 12:00:53;;;;;;;87.88;62.53;;;31.10;96.60;;;;;;5033719;28;20026;-64
2022/05/22 12:03:59;;;;;;;91.65;64.68;;;31.00;96.70;;;;;;5035287;28;20033;-65
2022/05/22 12:06:35;;;;;;;84.47;61.55;;;31.10;97.10;;;;;;5036432;28;20079;-64
2022/05/22 12:09:41;;;;;;;74.28;57.70;;;31.10;97.40;;;;;;5037122;28;20031;-63
2022/05/22 12:12:20;;;;;;;79.65;58.17;;;31.00;97.10;;;;;;5015203;28;20034;-64
2022/05/22 12:15:16;;;;;;;88.57;62.67;;;31.10;97.70;;;;;;5014595;28;20491;-64
2022/05/22 12:17:43;;;;;;;80.57;61.05;;;31.00;97.50;;;;;;5013190;28;20064;-65
2022/05/22 12:20:19;;;;;;;87.57;63.97;;;31.00;97.80;;;;;;5014393;28;20089;-65
2022/05/22 12:23:11;;;;;;;86.40;64.28;;;31.00;97.80;;;;;;5014639;28;20034;-65
2022/05/22 12:25:43;;;;;;;85.70;63.83;;;31.00;98.40;;;;;;5013861;28;20038;-65
2022/05/22 12:28:38;;;;;;;88.95;67.97;;;31.00;97.90;;;;;;4997547;28;20546;-63
2022/05/22 12:31:29;;;;;;;83.13;62.92;;;31.00;98.30;;;;;;5014525;28;20041;-63
2022/05/22 12:34:05;;;;;;;88.90;65.50;;;30.80;98.40;;;;;;4955912;29;20047;-63
2022/05/22 12:36:33;;;;;;;90.63;64.25;;;30.80;98.70;;;;;;4955401;29;20527;-63
2022/05/22 12:39:06;;;;;;;83.72;63.85;;;30.80;99.10;;;;;;4954911;29;20116;-62
2022/05/22 12:41:43;;;;;;;89.30;67.30;;;30.80;99.20;;;;;;4955247;29;20062;-65
2022/05/22 12:44:11;;;;;;;91.57;63.83;;;30.80;99.20;;;;;;4954499;29;20035;-61
2022/05/22 12:46:39;;;;;;;81.82;63.60;;;30.70;99.50;;;;;;4954880;29;20067;-62
2022/05/22 12:49:19;;;;;;;81.18;59.95;;;30.70;99.70;;;;;;4967162;28;20031;-60
2022/05/22 12:51:58;;;;;;;85.47;63.95;;;30.70;99.90;;;;;;4985975;28;20102;-64
2022/05/22 12:54:26;;;;;;;83.18;62.95;;;30.70;99.90;;;;;;4982772;28;20038;-62
2022/05/22 12:56:53;;;;;;;91.57;65.07;;;30.70;99.90;;;;;;4983362;28;20031;-64
2022/05/22 12:59:29;;;;;;;103.40;71.18;;;30.70;99.90;;;;;;4984755;28;20030;-63
2022/05/22 13:01:58;;;;;;;94.43;66.70;;;30.70;99.90;;;;;;4983203;28;20042;-63
2022/05/22 13:04:29;;;;;;;94.80;65.97;;;30.70;99.90;;;;;;4982227;28;20038;-63
2022/05/22 13:07:02;;;;;;;93.47;62.70;;;30.60;99.90;;;;;;4990634;28;20030;-62